createdAt,value
2023-04-11T00:00:55.847Z,14.61
2023-04-11T00:03:23.096Z,14.64
2023-04-11T00:05:50.584Z,14.68
2023-04-11T00:08:17.289Z,14.74
2023-04-11T00:10:45.617Z,14.76
2023-04-11T00:13:12.698Z,14.78
2023-04-11T00:15:39.569Z,14.77
2023-04-11T00:18:07.096Z,14.72
2023-04-11T00:20:34.218Z,14.73
2023-04-11T00:23:01.016Z,14.68
2023-04-11T00:25:30.196Z,14.71
2023-04-11T00:27:57.418Z,14.71
2023-04-11T00:30:24.631Z,14.68
2023-04-11T00:32:51.470Z,14.61
2023-04-11T00:35:18.815Z,14.60
2023-04-11T00:37:46.688Z,14.60
2023-04-11T00:40:16.212Z,14.64
2023-04-11T00:42:42.981Z,14.60
2023-04-11T00:45:10.090Z,14.58
2023-04-11T00:47:37.098Z,14.54
2023-04-11T00:50:04.081Z,14.52
2023-04-11T00:52:30.883Z,14.48
2023-04-11T00:54:58.132Z,14.46
2023-04-11T00:57:26.259Z,14.40
2023-04-11T00:59:53.062Z,14.24
2023-04-11T01:02:25.128Z,14.00
2023-04-11T01:04:53.539Z,13.87
2023-04-11T01:07:20.606Z,13.76
2023-04-11T01:09:47.539Z,13.83
2023-04-11T01:12:14.979Z,13.80
2023-04-11T01:14:42.174Z,13.82
2023-04-11T01:17:12.718Z,13.90
2023-04-11T01:19:39.448Z,13.79
2023-04-11T01:22:06.356Z,14.04
2023-04-11T01:24:33.290Z,14.21
2023-04-11T01:27:00.132Z,14.22
2023-04-11T01:29:27.089Z,14.22
2023-04-11T01:31:54.475Z,13.98
2023-04-11T01:34:28.426Z,14.00
2023-04-11T01:36:55.495Z,13.69
2023-04-11T01:39:22.233Z,13.80
2023-04-11T01:41:49.390Z,13.60
2023-04-11T01:44:16.294Z,13.23
2023-04-11T01:46:43.702Z,12.80
2023-04-11T01:49:10.638Z,12.60
2023-04-11T01:51:37.990Z,12.46
2023-04-11T01:54:05.088Z,12.37
2023-04-11T01:56:31.828Z,12.53
2023-04-11T01:58:59.387Z,12.35
2023-04-11T02:01:26.906Z,12.51
2023-04-11T02:03:54.049Z,12.57
2023-04-11T02:06:20.962Z,12.79
2023-04-11T02:08:47.688Z,12.68
2023-04-11T02:11:17.920Z,12.60
2023-04-11T02:13:44.983Z,12.38
2023-04-11T02:16:15.543Z,12.24
2023-04-11T02:18:44.850Z,12.10
2023-04-11T02:21:12.013Z,12.04
2023-04-11T02:23:39.136Z,12.03
2023-04-11T02:26:05.968Z,11.97
2023-04-11T02:28:32.677Z,11.72
2023-04-11T02:30:59.474Z,11.87
2023-04-11T02:33:26.393Z,11.80
2023-04-11T02:35:53.385Z,11.75
2023-04-11T02:38:21.225Z,11.56
2023-04-11T02:40:48.031Z,11.62
2023-04-11T02:43:15.386Z,11.70
2023-04-11T02:45:42.592Z,11.82
2023-04-11T02:48:10.880Z,11.71
2023-04-11T02:50:42.853Z,11.73
2023-04-11T02:53:09.804Z,11.70
2023-04-11T02:55:41.786Z,11.52
2023-04-11T02:58:08.733Z,11.69
2023-04-11T03:00:37.850Z,11.60
2023-04-11T03:03:07.939Z,11.57
2023-04-11T03:05:40.387Z,11.55
2023-04-11T03:08:09.185Z,11.51
2023-04-11T03:10:38.860Z,11.55
2023-04-11T03:13:09.160Z,11.58
2023-04-11T03:15:36.123Z,11.54
2023-04-11T03:18:06.805Z,11.39
2023-04-11T03:20:36.314Z,11.43
2023-04-11T03:23:03.228Z,11.51
2023-04-11T03:25:29.979Z,11.45
2023-04-11T03:27:57.331Z,11.48
2023-04-11T03:30:24.434Z,11.43
2023-04-11T03:32:53.208Z,11.28
2023-04-11T03:35:23.076Z,11.29
2023-04-11T03:37:50.718Z,11.31
2023-04-11T03:40:18.868Z,11.30
2023-04-11T03:42:51.408Z,11.32
2023-04-11T03:45:22.440Z,11.23
2023-04-11T03:47:52.262Z,11.06
2023-04-11T03:50:22.459Z,11.05
2023-04-11T03:52:56.054Z,11.16
2023-04-11T03:55:22.860Z,10.98
2023-04-11T03:57:49.742Z,11.03
2023-04-11T04:00:19.272Z,10.87
2023-04-11T04:02:58.757Z,10.84
2023-04-11T04:05:26.129Z,10.59
2023-04-11T04:07:55.178Z,10.46
2023-04-11T04:10:31.604Z,10.40
2023-04-11T04:12:59.161Z,10.47
2023-04-11T04:15:34.042Z,10.31
2023-04-11T04:18:02.296Z,10.42
2023-04-11T04:20:48.003Z,10.40
2023-04-11T04:23:18.310Z,10.45
2023-04-11T04:25:53.479Z,10.50
2023-04-11T04:28:26.270Z,10.53
2023-04-11T04:30:58.213Z,10.40
2023-04-11T04:33:28.225Z,9.89
2023-04-11T04:36:00.366Z,10.33
2023-04-11T04:38:31.099Z,10.47
2023-04-11T04:40:59.385Z,10.30
2023-04-11T04:43:32.404Z,10.27
2023-04-11T04:46:36.863Z,10.25
2023-04-11T04:49:06.078Z,10.42
2023-04-11T04:51:37.457Z,10.44
2023-04-11T04:54:05.212Z,10.40
2023-04-11T04:56:35.015Z,10.42
2023-04-11T04:59:01.832Z,10.13
2023-04-11T05:01:33.191Z,10.13
2023-04-11T05:04:02.068Z,10.24
2023-04-11T05:06:43.658Z,10.08
2023-04-11T05:09:10.504Z,10.05
2023-04-11T05:11:37.241Z,9.91
2023-04-11T05:14:03.996Z,9.88
2023-04-11T05:16:30.799Z,9.79
2023-04-11T05:18:57.947Z,9.92
2023-04-11T05:21:24.753Z,9.65
2023-04-11T05:23:52.957Z,9.75
2023-04-11T05:26:22.935Z,9.42
2023-04-11T05:28:49.691Z,9.53
2023-04-11T05:31:20.065Z,9.67
2023-04-11T05:33:47.180Z,9.45
2023-04-11T05:36:14.590Z,9.17
2023-04-11T05:38:42.028Z,9.33
2023-04-11T05:41:09.275Z,9.52
2023-04-11T05:43:36.464Z,9.50
2023-04-11T05:46:04.234Z,9.49
2023-04-11T05:48:31.234Z,9.42
2023-04-11T05:50:58.507Z,9.44
2023-04-11T05:53:25.214Z,9.41
2023-04-11T05:55:52.137Z,9.39
2023-04-11T05:58:18.835Z,9.33
2023-04-11T06:00:46.268Z,9.47
2023-04-11T06:03:13.416Z,9.55
2023-04-11T06:05:40.678Z,9.65
2023-04-11T06:08:07.716Z,9.71
2023-04-11T06:10:35.582Z,9.55
2023-04-11T06:13:02.389Z,9.66
2023-04-11T06:15:29.641Z,9.78
2023-04-11T06:17:56.368Z,9.75
2023-04-11T06:20:23.821Z,9.67
2023-04-11T06:22:54.059Z,9.57
2023-04-11T06:25:21.857Z,9.58
2023-04-11T06:27:48.824Z,9.56
2023-04-11T06:30:15.713Z,9.66
2023-04-11T06:32:42.599Z,9.75
2023-04-11T06:35:09.938Z,9.79
2023-04-11T06:37:36.684Z,9.76
2023-04-11T06:40:05.925Z,9.74
2023-04-11T06:42:32.905Z,9.73
2023-04-11T06:45:02.576Z,9.82
2023-04-11T06:47:29.370Z,9.71
2023-04-11T06:49:56.380Z,9.80
2023-04-11T06:52:23.084Z,9.81
2023-04-11T06:54:49.826Z,9.92
2023-04-11T06:57:16.625Z,9.79
2023-04-11T06:59:43.305Z,9.92
2023-04-11T07:02:10.185Z,9.89
2023-04-11T07:04:37.076Z,9.89
2023-04-11T07:07:07.307Z,9.94
2023-04-11T07:09:34.027Z,9.93
2023-04-11T07:12:01.382Z,9.86
2023-04-11T07:14:28.093Z,9.83
2023-04-11T07:16:54.814Z,9.80
2023-04-11T07:19:21.628Z,9.82
2023-04-11T07:21:49.396Z,10.05
2023-04-11T07:24:18.756Z,10.07
2023-04-11T07:26:46.820Z,10.01
2023-04-11T07:29:14.861Z,9.91
2023-04-11T07:31:41.866Z,9.90
2023-04-11T07:34:10.461Z,9.73
2023-04-11T07:36:37.270Z,9.55
2023-04-11T07:39:05.286Z,9.73
2023-04-11T07:41:32.357Z,10.00
2023-04-11T07:44:00.290Z,10.25
2023-04-11T07:46:27.739Z,10.41
2023-04-11T07:48:54.536Z,10.45
2023-04-11T07:51:21.236Z,10.20
2023-04-11T07:53:47.993Z,10.40
2023-04-11T07:56:15.508Z,10.36
2023-04-11T07:58:42.402Z,10.53
2023-04-11T08:01:24.093Z,10.52
2023-04-11T08:03:53.275Z,10.34
2023-04-11T08:06:20.071Z,10.80
2023-04-11T08:08:47.739Z,10.75
2023-04-11T08:11:15.057Z,10.83
2023-04-11T08:13:42.680Z,10.83
2023-04-11T08:16:11.911Z,10.68
2023-04-11T08:18:42.348Z,10.74
2023-04-11T08:21:12.349Z,10.92
2023-04-11T08:23:42.972Z,10.57
2023-04-11T08:26:10.849Z,10.59
2023-04-11T08:28:37.608Z,10.97
2023-04-11T08:31:05.482Z,11.03
2023-04-11T08:33:32.329Z,10.91
2023-04-11T08:35:59.241Z,10.99
2023-04-11T08:38:26.061Z,11.02
2023-04-11T08:40:53.297Z,11.30
2023-04-11T08:43:20.065Z,11.19
2023-04-11T08:45:46.876Z,11.01
2023-04-11T08:48:13.683Z,11.18
2023-04-11T08:50:41.496Z,11.13
2023-04-11T08:53:08.869Z,11.06
2023-04-11T08:55:36.705Z,10.98
2023-04-11T08:58:03.951Z,10.85
2023-04-11T09:00:32.673Z,10.76
2023-04-11T09:03:07.604Z,10.77
2023-04-11T09:05:36.472Z,11.02
2023-04-11T09:08:06.698Z,11.23
2023-04-11T09:10:33.825Z,11.13
2023-04-11T09:13:00.686Z,11.11
2023-04-11T09:15:29.276Z,11.04
2023-04-11T09:17:58.936Z,11.37
2023-04-11T09:20:30.403Z,11.42
2023-04-11T09:22:59.038Z,11.30
2023-04-11T09:25:26.162Z,11.77
2023-04-11T09:28:10.258Z,11.84
2023-04-11T09:30:37.316Z,12.16
2023-04-11T09:33:23.529Z,12.13
2023-04-11T09:35:52.555Z,12.51
2023-04-11T09:38:29.526Z,12.02
2023-04-11T09:40:57.268Z,12.04
2023-04-11T09:43:24.506Z,12.33
2023-04-11T09:46:09.065Z,12.48
2023-04-11T09:48:46.153Z,12.60
2023-04-11T09:51:35.690Z,12.55
2023-04-11T09:54:06.107Z,12.82
2023-04-11T09:56:34.877Z,13.12
2023-04-11T09:59:03.071Z,13.37
2023-04-11T10:01:38.303Z,13.34
2023-04-11T10:04:05.294Z,13.17
2023-04-11T10:06:41.044Z,13.31
2023-04-11T10:09:09.806Z,13.27
2023-04-11T10:11:36.975Z,12.72
2023-04-11T10:14:04.036Z,12.72
2023-04-11T10:16:34.334Z,12.70
2023-04-11T10:19:01.333Z,12.83
2023-04-11T10:21:34.104Z,12.96
2023-04-11T10:24:10.089Z,12.94
2023-04-11T10:26:58.126Z,12.90
2023-04-11T10:29:35.254Z,12.68
2023-04-11T10:32:17.570Z,12.56
2023-04-11T10:34:50.076Z,12.55
2023-04-11T10:37:31.730Z,12.30
2023-04-11T10:40:02.725Z,12.51
2023-04-11T10:42:32.710Z,12.18
2023-04-11T10:45:27.604Z,12.61
2023-04-11T10:47:57.591Z,12.91
2023-04-11T10:50:27.028Z,12.87
2023-04-11T10:52:54.746Z,13.24
2023-04-11T10:55:22.794Z,13.21
2023-04-11T10:58:22.519Z,13.20
2023-04-11T11:00:52.411Z,13.24
2023-04-11T11:03:22.353Z,13.13
2023-04-11T11:06:10.209Z,13.51
2023-04-11T11:08:41.671Z,13.49
2023-04-11T11:11:11.032Z,13.71
2023-04-11T11:13:49.829Z,14.33
2023-04-11T11:16:18.602Z,14.21
2023-04-11T11:18:47.525Z,14.41
2023-04-11T11:21:20.783Z,14.77
2023-04-11T11:24:00.519Z,15.20
2023-04-11T11:26:41.993Z,15.06
2023-04-11T11:29:09.706Z,15.41
2023-04-11T11:31:45.802Z,15.36
2023-04-11T11:34:23.597Z,15.19
2023-04-11T11:36:51.420Z,15.55
2023-04-11T11:39:19.103Z,15.83
2023-04-11T11:41:47.263Z,16.29
2023-04-11T11:44:28.092Z,16.10
2023-04-11T11:47:05.632Z,15.44
2023-04-11T11:49:51.826Z,14.85
2023-04-11T11:52:42.447Z,15.18
2023-04-11T11:55:18.246Z,15.20
2023-04-11T11:57:46.003Z,15.63
2023-04-11T12:00:14.186Z,16.16
2023-04-11T12:02:44.182Z,16.17
2023-04-11T12:05:12.286Z,15.19
2023-04-11T12:07:39.753Z,14.59
2023-04-11T12:10:09.131Z,14.54
2023-04-11T12:12:37.156Z,14.59
2023-04-11T12:15:10.639Z,15.23
2023-04-11T12:17:38.044Z,15.50
2023-04-11T12:20:08.781Z,15.51
2023-04-11T12:22:38.093Z,14.71
2023-04-11T12:25:07.141Z,14.47
2023-04-11T12:27:35.132Z,14.52
2023-04-11T12:30:02.179Z,14.76
2023-04-11T12:32:28.981Z,14.85
2023-04-11T12:34:56.829Z,14.70
2023-04-11T12:37:23.874Z,14.03
2023-04-11T12:39:50.676Z,14.12
2023-04-11T12:42:21.003Z,14.15
2023-04-11T12:44:51.778Z,14.76
2023-04-11T12:47:18.828Z,14.62
2023-04-11T12:49:45.646Z,15.23
2023-04-11T12:52:14.917Z,14.87
2023-04-11T12:54:41.932Z,15.14
2023-04-11T12:57:08.651Z,14.88
2023-04-11T12:59:35.322Z,15.29
2023-04-11T13:02:02.421Z,15.71
2023-04-11T13:04:29.344Z,15.72
2023-04-11T13:07:01.005Z,15.30
2023-04-11T13:09:31.708Z,14.93
2023-04-11T13:11:59.284Z,14.90
2023-04-11T13:14:25.983Z,15.24
2023-04-11T13:16:52.684Z,14.85
2023-04-11T13:19:19.673Z,15.00
2023-04-11T13:21:46.346Z,14.83
2023-04-11T13:24:13.667Z,14.50
2023-04-11T13:26:40.380Z,14.77
2023-04-11T13:29:09.858Z,14.62
2023-04-11T13:31:36.701Z,14.53
2023-04-11T13:34:03.549Z,14.95
2023-04-11T13:36:32.457Z,15.49
2023-04-11T13:38:59.566Z,15.45
2023-04-11T13:41:26.358Z,15.55
2023-04-11T13:43:53.505Z,15.61
2023-04-11T13:46:23.720Z,15.56
2023-04-11T13:48:50.618Z,15.32
2023-04-11T13:51:17.376Z,15.06
2023-04-11T13:53:44.170Z,15.10
2023-04-11T13:56:11.505Z,14.97
2023-04-11T13:58:39.061Z,14.70
2023-04-11T14:01:06.961Z,14.71
2023-04-11T14:03:34.002Z,14.99
2023-04-11T14:06:01.342Z,14.93
2023-04-11T14:08:28.958Z,14.47
2023-04-11T14:10:55.998Z,14.84
2023-04-11T14:13:22.789Z,14.93
2023-04-11T14:16:01.041Z,14.88
2023-04-11T14:18:34.668Z,15.02
2023-04-11T14:21:01.982Z,14.76
2023-04-11T14:23:29.410Z,15.02
2023-04-11T14:25:56.197Z,15.20
2023-04-11T14:28:26.534Z,15.24
2023-04-11T14:30:54.038Z,15.44
2023-04-11T14:33:23.656Z,15.47
2023-04-11T14:35:51.203Z,15.20
2023-04-11T14:38:18.043Z,15.32
2023-04-11T14:40:45.160Z,15.13
2023-04-11T14:43:12.476Z,14.73
2023-04-11T14:45:39.374Z,14.53
2023-04-11T14:48:08.974Z,14.71
2023-04-11T14:50:35.652Z,14.78
2023-04-11T14:53:03.062Z,15.03
2023-04-11T14:55:29.732Z,14.82
2023-04-11T14:57:56.750Z,14.64
2023-04-11T15:00:25.049Z,14.38
2023-04-11T15:02:54.093Z,14.38
2023-04-11T15:05:22.846Z,14.82
2023-04-11T15:07:51.088Z,15.00
2023-04-11T15:10:20.008Z,15.07
2023-04-11T15:12:47.244Z,14.96
2023-04-11T15:15:14.115Z,15.00
2023-04-11T15:17:42.775Z,14.91
2023-04-11T15:20:11.388Z,14.70
2023-04-11T15:22:41.252Z,14.36
2023-04-11T15:25:10.607Z,14.52
2023-04-11T15:27:37.983Z,14.40
2023-04-11T15:30:06.231Z,14.30
2023-04-11T15:32:33.240Z,14.46
2023-04-11T15:35:00.117Z,14.57
2023-04-11T15:37:27.306Z,14.54
2023-04-11T15:39:54.293Z,14.62
2023-04-11T15:42:21.864Z,14.73
2023-04-11T15:44:48.623Z,14.58
2023-04-11T15:47:16.940Z,14.28
2023-04-11T15:49:43.868Z,14.14
2023-04-11T15:52:11.281Z,13.82
2023-04-11T15:54:38.010Z,13.97
2023-04-11T15:57:04.715Z,13.98
2023-04-11T15:59:31.447Z,14.07
2023-04-11T16:01:58.229Z,14.12
2023-04-11T16:04:25.805Z,14.14
2023-04-11T16:06:52.678Z,14.07
2023-04-11T16:09:19.434Z,14.15
2023-04-11T16:11:46.299Z,14.17
2023-04-11T16:14:13.409Z,13.98
2023-04-11T16:16:40.630Z,14.01
2023-04-11T16:19:07.982Z,14.10
2023-04-11T16:21:35.932Z,14.23
2023-04-11T16:24:02.733Z,14.27
2023-04-11T16:26:29.544Z,14.25
2023-04-11T16:28:56.304Z,14.00
2023-04-11T16:31:25.112Z,13.64
2023-04-11T16:33:55.595Z,13.78
2023-04-11T16:36:22.593Z,13.52
2023-04-11T16:38:52.145Z,13.38
2023-04-11T16:41:18.844Z,13.37
2023-04-11T16:43:45.537Z,13.27
2023-04-11T16:46:16.208Z,13.34
2023-04-11T16:48:43.690Z,13.34
2023-04-11T16:51:11.369Z,13.26
2023-04-11T16:53:38.789Z,13.23
2023-04-11T16:56:06.080Z,13.31
2023-04-11T16:58:35.940Z,13.27
2023-04-11T17:01:02.741Z,13.27
2023-04-11T17:03:30.257Z,13.27
2023-04-11T17:05:57.528Z,13.27
2023-04-11T17:08:24.351Z,13.20
2023-04-11T17:10:51.236Z,13.11
2023-04-11T17:13:19.241Z,13.12
2023-04-11T17:15:46.455Z,13.17
2023-04-11T17:18:14.731Z,13.27
2023-04-11T17:20:43.599Z,13.20
2023-04-11T17:23:16.670Z,13.04
2023-04-11T17:25:43.477Z,12.85
2023-04-11T17:28:10.169Z,12.90
2023-04-11T17:30:37.067Z,12.92
2023-04-11T17:33:04.407Z,12.85
2023-04-11T17:35:31.136Z,12.76
2023-04-11T17:37:58.154Z,12.87
2023-04-11T17:40:25.040Z,12.80
2023-04-11T17:42:52.024Z,12.81
2023-04-11T17:45:19.556Z,12.74
2023-04-11T17:47:49.430Z,12.64
2023-04-11T17:50:16.786Z,12.61
2023-04-11T17:52:45.145Z,12.55
2023-04-11T17:55:14.118Z,12.45
2023-04-11T17:57:41.098Z,12.41
2023-04-11T18:00:24.185Z,12.33
2023-04-11T18:02:59.535Z,12.28
2023-04-11T18:05:28.947Z,12.26
2023-04-11T18:07:57.727Z,12.19
2023-04-11T18:10:26.084Z,12.14
2023-04-11T18:12:54.340Z,12.10
2023-04-11T18:15:25.091Z,12.05
2023-04-11T18:17:52.460Z,12.00
2023-04-11T18:20:19.597Z,11.92
2023-04-11T18:22:49.129Z,11.89
2023-04-11T18:25:15.904Z,11.84
2023-04-11T18:27:42.832Z,11.81
2023-04-11T18:30:14.306Z,11.82
2023-04-11T18:32:47.420Z,11.77
2023-04-11T18:35:16.291Z,11.88
2023-04-11T18:37:43.505Z,11.79
2023-04-11T18:40:12.038Z,11.86
2023-04-11T18:42:39.485Z,11.89
2023-04-11T18:45:06.847Z,11.88
2023-04-11T18:47:33.892Z,11.85
2023-04-11T18:50:01.951Z,11.80
2023-04-11T18:52:29.349Z,11.77
2023-04-11T18:54:57.960Z,11.66
2023-04-11T18:57:26.789Z,11.68
2023-04-11T18:59:56.685Z,11.68
2023-04-11T19:02:24.426Z,11.62
2023-04-11T19:04:51.988Z,11.55
2023-04-11T19:07:18.945Z,11.55
2023-04-11T19:09:47.125Z,11.53
2023-04-11T19:12:17.109Z,11.49
2023-04-11T19:14:44.136Z,11.45
2023-04-11T19:17:12.860Z,11.41
2023-04-11T19:19:39.668Z,11.40
2023-04-11T19:22:07.558Z,11.38
2023-04-11T19:24:34.277Z,11.37
2023-04-11T19:27:01.723Z,11.35
2023-04-11T19:29:28.465Z,11.35
2023-04-11T19:31:55.311Z,11.34
2023-04-11T19:34:22.074Z,11.31
2023-04-11T19:36:48.860Z,11.33
2023-04-11T19:39:15.601Z,11.32
2023-04-11T19:41:46.407Z,11.29
2023-04-11T19:44:13.213Z,11.23
2023-04-11T19:46:43.289Z,11.22
2023-04-11T19:49:10.608Z,11.20
2023-04-11T19:51:39.625Z,11.16
2023-04-11T19:54:06.354Z,11.12
2023-04-11T19:56:33.046Z,11.10
2023-04-11T19:58:59.776Z,11.08
2023-04-11T20:01:28.597Z,11.05
2023-04-11T20:03:57.550Z,11.03
2023-04-11T20:06:25.244Z,10.99
2023-04-11T20:08:54.378Z,10.97
2023-04-11T20:11:22.304Z,10.94
2023-04-11T20:13:49.111Z,10.92
2023-04-11T20:16:17.172Z,10.93
2023-04-11T20:18:43.919Z,10.96
2023-04-11T20:21:13.377Z,10.98
2023-04-11T20:23:40.671Z,10.98
2023-04-11T20:26:07.795Z,10.95
2023-04-11T20:28:35.766Z,10.96
2023-04-11T20:31:04.616Z,10.99
2023-04-11T20:33:31.890Z,10.98
2023-04-11T20:35:58.825Z,10.97
2023-04-11T20:38:26.509Z,10.97
2023-04-11T20:40:53.230Z,10.97
2023-04-11T20:43:20.088Z,10.97
2023-04-11T20:45:47.065Z,10.96
2023-04-11T20:48:13.968Z,11.01
2023-04-11T20:50:42.087Z,11.03
2023-04-11T20:53:08.814Z,11.02
2023-04-11T20:55:35.778Z,11.02
2023-04-11T20:58:02.548Z,11.03
2023-04-11T21:00:29.579Z,10.99
2023-04-11T21:02:56.585Z,10.97
2023-04-11T21:05:24.998Z,10.98
2023-04-11T21:07:54.584Z,10.99
2023-04-11T21:10:21.502Z,10.96
2023-04-11T21:12:55.801Z,10.96
2023-04-11T21:15:22.661Z,10.96
2023-04-11T21:17:50.498Z,10.98
2023-04-11T21:20:18.349Z,10.93
2023-04-11T21:22:49.110Z,10.93
2023-04-11T21:25:16.487Z,10.91
2023-04-11T21:27:43.503Z,10.92
2023-04-11T21:30:10.891Z,10.90
2023-04-11T21:32:39.785Z,10.93
2023-04-11T21:35:10.666Z,10.92
2023-04-11T21:37:38.086Z,10.88
2023-04-11T21:40:05.212Z,10.91
2023-04-11T21:42:31.935Z,10.91
2023-04-11T21:45:01.522Z,10.86
2023-04-11T21:47:28.298Z,10.81
2023-04-11T21:49:55.000Z,10.82
2023-04-11T21:52:22.432Z,10.78
2023-04-11T21:54:49.185Z,10.75
2023-04-11T21:57:23.447Z,10.76
2023-04-11T21:59:50.166Z,10.79
2023-04-11T22:02:17.005Z,10.83
2023-04-11T22:05:01.257Z,10.82
2023-04-11T22:07:48.539Z,10.82
2023-04-11T22:10:22.308Z,10.83
2023-04-11T22:12:49.380Z,10.80
2023-04-11T22:15:18.718Z,10.80
2023-04-11T22:17:53.423Z,10.77
2023-04-11T22:20:20.945Z,10.80
2023-04-11T22:22:48.211Z,10.80
2023-04-11T22:25:18.476Z,10.79
2023-04-11T22:27:45.776Z,10.78
2023-04-11T22:30:14.403Z,10.78
2023-04-11T22:32:41.155Z,10.77
2023-04-11T22:35:08.390Z,10.74
2023-04-11T22:37:35.096Z,10.73
2023-04-11T22:40:01.970Z,10.74
2023-04-11T22:42:29.135Z,10.77
2023-04-11T22:44:56.175Z,10.75
2023-04-11T22:47:22.941Z,10.76
2023-04-11T22:49:50.588Z,10.74
2023-04-11T22:52:26.082Z,10.75
2023-04-11T22:54:52.816Z,10.74
2023-04-11T22:57:19.470Z,10.72
2023-04-11T22:59:46.537Z,10.72
2023-04-11T23:02:13.296Z,10.72
2023-04-11T23:04:40.058Z,10.74
2023-04-11T23:07:06.767Z,10.73
2023-04-11T23:09:33.448Z,10.69
2023-04-11T23:12:00.184Z,10.65
2023-04-11T23:14:31.397Z,10.59
2023-04-11T23:16:58.435Z,10.54
2023-04-11T23:19:25.477Z,10.53
2023-04-11T23:21:52.217Z,10.52
2023-04-11T23:24:19.365Z,10.54
2023-04-11T23:26:46.497Z,10.55
2023-04-11T23:29:13.420Z,10.57
2023-04-11T23:31:40.096Z,10.58
2023-04-11T23:34:07.278Z,10.60
2023-04-11T23:36:34.699Z,10.62
2023-04-11T23:39:02.384Z,10.63
2023-04-11T23:41:30.444Z,10.63
2023-04-11T23:43:57.633Z,10.62
2023-04-11T23:46:24.692Z,10.61
2023-04-11T23:48:51.764Z,10.62
2023-04-11T23:51:24.216Z,10.62
2023-04-11T23:53:50.915Z,10.62
2023-04-11T23:56:18.274Z,10.64
2023-04-11T23:58:44.997Z,10.65
